Time;durP1;ratioP1;P1;durP2;ratioP2;P2;SDS_P1;SDS_P2;PMS_P1;PMS_P2;Temp;Humidity;BMP_temperature;BMP_pressure;BME280_temperature;BME280_humidity;BME280_pressure;Samples;Min_cycle;Max_cycle;Signal;HPM_P1;HPM_P2
2022/06/25 00:00:25;;;;;;;3.70;3.33;;;18.40;99.90;18.60;99909.00;;;;4934189;28;118064;-63
2022/06/25 00:02:51;;;;;;;4.97;3.80;;;18.40;99.90;18.60;99909.00;;;;4934179;28;116885;-63
2022/06/25 00:05:29;;;;;;;2.83;2.50;;;18.50;99.90;18.60;99908.00;;;;4934747;28;110343;-63
2022/06/25 00:07:56;;;;;;;5.25;4.00;;;18.50;99.90;18.60;99908.00;;;;4936862;28;87017;-64
2022/06/25 00:10:23;;;;;;;4.13;3.38;;;18.40;99.90;18.60;99915.00;;;;4934509;28;112821;-64
2022/06/25 00:12:49;;;;;;;4.25;3.95;;;18.40;99.90;18.60;99920.00;;;;4935631;28;87948;-63
2022/06/25 00:15:15;;;;;;;3.30;3.00;;;18.40;99.90;18.60;99914.00;;;;4934712;28;98348;-64
2022/06/25 00:17:53;;;;;;;4.32;3.22;;;18.40;99.90;18.60;99915.00;;;;4936444;28;87777;-63
2022/06/25 00:20:19;;;;;;;4.43;3.58;;;18.40;99.90;18.60;99909.00;;;;4935050;28;92111;-62
2022/06/25 00:22:44;;;;;;;3.17;2.88;;;18.40;99.90;18.60;99913.00;;;;4934917;28;104339;-64
2022/06/25 00:25:10;;;;;;;4.03;3.65;;;18.40;99.90;18.60;99917.00;;;;4936263;28;87889;-64
2022/06/25 00:27:36;;;;;;;4.32;3.80;;;18.40;99.90;18.60;99922.00;;;;4935170;28;109178;-64
2022/06/25 00:30:04;;;;;;;3.15;2.85;;;18.40;99.90;18.60;99916.00;;;;4934418;28;88429;-64
2022/06/25 00:32:30;;;;;;;10.07;4.07;;;18.40;99.90;18.60;99919.00;;;;4936648;28;87747;-64
2022/06/25 00:34:56;;;;;;;4.80;3.90;;;18.40;99.90;18.60;99919.00;;;;4934937;28;88944;-64
2022/06/25 00:37:21;;;;;;;5.68;3.63;;;18.40;99.90;18.50;99917.00;;;;4935771;28;87917;-64
2022/06/25 00:39:47;;;;;;;4.13;3.45;;;18.40;99.90;18.50;99915.00;;;;4899931;28;117737;-64
2022/06/25 00:42:14;;;;;;;5.30;3.30;;;18.40;99.90;18.50;99917.00;;;;4934636;28;119300;-64
2022/06/25 00:44:41;;;;;;;6.68;3.38;;;18.40;99.90;18.50;99907.00;;;;4935927;28;87558;-64
2022/06/25 00:47:10;;;;;;;4.07;3.42;;;18.30;99.90;18.50;99906.00;;;;4936461;28;87681;-64
2022/06/25 00:49:36;;;;;;;5.60;4.43;;;18.30;99.90;18.40;99904.00;;;;4935221;28;88777;-63
2022/06/25 00:52:18;;;;;;;5.85;4.15;;;18.30;99.90;18.40;99905.00;;;;4936155;28;88288;-63
2022/06/25 00:54:58;;;;;;;4.70;3.83;;;18.30;99.90;18.40;99905.00;;;;4936245;28;87910;-63
2022/06/25 00:57:26;;;;;;;4.22;3.83;;;18.30;99.90;18.40;99896.00;;;;4935732;28;99715;-64
2022/06/25 01:00:14;;;;;;;4.28;3.88;;;18.30;99.90;18.40;99905.00;;;;4933401;28;108898;-64
2022/06/25 01:02:40;;;;;;;3.97;3.63;;;18.30;99.90;18.40;99897.00;;;;4915912;28;88124;-63
2022/06/25 01:05:09;;;;;;;4.88;4.38;;;18.30;99.90;18.40;99899.00;;;;4919980;28;110617;-63
2022/06/25 01:07:35;;;;;;;5.30;4.13;;;18.30;99.90;18.40;99892.00;;;;4935125;28;87776;-63
2022/06/25 01:10:02;;;;;;;5.53;4.18;;;18.30;99.90;18.40;99895.00;;;;4932565;28;95723;-63
2022/06/25 01:12:28;;;;;;;4.43;3.78;;;18.30;99.90;18.40;99893.00;;;;4935017;28;87947;-63
2022/06/25 01:15:08;;;;;;;4.15;3.75;;;18.30;99.90;18.40;99883.00;;;;4933577;28;99452;-64
2022/06/25 01:17:41;;;;;;;5.55;4.55;;;18.30;99.90;18.40;99885.00;;;;4934803;28;87601;-64
2022/06/25 01:20:08;;;;;;;4.53;3.33;;;18.30;99.90;18.40;99875.00;;;;4934285;28;89050;-64
2022/06/25 01:22:34;;;;;;;4.72;4.32;;;18.30;99.90;18.50;99881.00;;;;4933445;28;88356;-64
2022/06/25 01:25:00;;;;;;;4.43;3.92;;;18.30;99.90;18.50;99879.00;;;;4933536;28;109231;-64
2022/06/25 01:27:26;;;;;;;4.22;3.10;;;18.30;99.90;18.40;99872.00;;;;4935841;28;87687;-63
2022/06/25 01:29:51;;;;;;;3.92;3.60;;;18.30;99.90;18.40;99876.00;;;;4934268;28;117696;-63
2022/06/25 01:32:17;;;;;;;6.40;4.00;;;18.30;99.90;18.50;99867.00;;;;4934568;28;118476;-64
2022/06/25 01:34:43;;;;;;;6.78;4.22;;;18.30;99.90;18.50;99873.00;;;;4934589;28;110953;-63
2022/06/25 01:37:08;;;;;;;6.10;4.13;;;18.40;99.90;18.50;99871.00;;;;4934386;28;109992;-64
2022/06/25 01:39:34;;;;;;;4.60;4.13;;;18.30;99.90;18.50;99868.00;;;;4934608;28;88723;-63
2022/06/25 01:42:01;;;;;;;3.60;3.30;;;18.30;99.90;18.50;99879.00;;;;4933856;28;118282;-63
2022/06/25 01:44:29;;;;;;;4.28;3.78;;;18.30;99.90;18.50;99870.00;;;;4933412;28;108774;-63
2022/06/25 01:46:56;;;;;;;4.22;3.72;;;18.40;99.90;18.50;99876.00;;;;4935353;28;86843;-64
2022/06/25 01:49:22;;;;;;;6.30;4.53;;;18.30;99.90;18.50;99868.00;;;;4934685;28;96204;-64
2022/06/25 01:51:49;;;;;;;5.40;4.47;;;18.40;99.90;18.50;99871.00;;;;4907151;28;100403;-64
2022/06/25 01:54:15;;;;;;;4.93;3.92;;;18.30;99.90;18.50;99864.00;;;;4914953;28;88997;-63
2022/06/25 01:56:41;;;;;;;4.68;4.13;;;18.40;99.90;18.50;99882.00;;;;4924138;28;91291;-64
2022/06/25 01:59:06;;;;;;;4.60;3.92;;;18.40;99.90;18.50;99873.00;;;;4933721;28;116175;-64
2022/06/25 02:01:32;;;;;;;5.65;4.32;;;18.40;99.90;18.50;99868.00;;;;4932623;28;116451;-64
2022/06/25 02:03:58;;;;;;;3.83;3.05;;;18.40;99.90;18.50;99872.00;;;;4934049;28;88061;-64
2022/06/25 02:06:24;;;;;;;9.43;5.18;;;18.40;99.90;18.50;99874.00;;;;4934901;28;95710;-64
2022/06/25 02:08:50;;;;;;;3.63;3.20;;;18.40;99.90;18.50;99873.00;;;;4934388;28;118834;-64
2022/06/25 02:11:15;;;;;;;5.15;4.15;;;18.40;99.90;18.50;99879.00;;;;4934801;28;98895;-64
2022/06/25 02:13:44;;;;;;;5.60;4.32;;;18.40;99.90;18.50;99884.00;;;;4935500;28;87594;-64
2022/06/25 02:16:10;;;;;;;6.93;4.72;;;18.40;99.90;18.50;99885.00;;;;4933849;28;109052;-64
2022/06/25 02:18:36;;;;;;;6.57;4.85;;;18.30;99.90;18.50;99891.00;;;;4934708;28;89633;-63
2022/06/25 02:21:02;;;;;;;5.40;4.43;;;18.30;99.90;18.50;99901.00;;;;4932274;28;107640;-64
2022/06/25 02:23:27;;;;;;;6.20;4.82;;;18.30;99.90;18.40;99904.00;;;;4934642;28;87923;-64
2022/06/25 02:25:53;;;;;;;5.60;5.07;;;18.30;99.90;18.40;99911.00;;;;4935081;28;87736;-63
2022/06/25 02:28:19;;;;;;;5.90;5.28;;;18.30;99.90;18.40;99906.00;;;;4934275;28;88481;-64
2022/06/25 02:30:46;;;;;;;4.55;4.15;;;18.20;99.90;18.40;99904.00;;;;4933206;28;88132;-63
2022/06/25 02:33:27;;;;;;;5.20;4.68;;;18.20;99.90;18.30;99915.00;;;;4934117;28;111222;-64
2022/06/25 02:35:52;;;;;;;5.82;4.85;;;18.20;99.90;18.30;99923.00;;;;4934578;28;109004;-63
2022/06/25 02:38:18;;;;;;;5.63;4.70;;;18.20;99.90;18.30;99934.00;;;;4936891;28;115180;-64
2022/06/25 02:40:46;;;;;;;8.07;5.65;;;18.20;99.90;18.30;99935.00;;;;4936850;28;114023;-63
2022/06/25 02:43:12;;;;;;;8.98;5.80;;;18.10;99.90;18.30;99943.00;;;;4937598;28;88982;-64
2022/06/25 02:45:37;;;;;;;6.75;4.93;;;18.10;99.90;18.30;99938.00;;;;4938946;28;87784;-63
2022/06/25 02:48:03;;;;;;;7.63;5.70;;;18.10;99.90;18.30;99943.00;;;;4917978;28;117855;-64
2022/06/25 02:50:29;;;;;;;5.38;4.40;;;18.10;99.90;18.30;99951.00;;;;4935311;28;107594;-63
2022/06/25 02:52:55;;;;;;;6.47;4.50;;;18.10;99.90;18.30;99955.00;;;;4936991;28;106474;-63
2022/06/25 02:58:54;;;;;;;7.05;5.60;;;18.20;99.90;18.30;99951.00;;;;4937654;28;109800;-63
2022/06/25 03:00:59;;;;;;;5.07;4.57;;;18.10;99.90;18.20;99957.00;;;;4937991;28;87168;-62
2022/06/25 03:03:25;;;;;;;5.90;5.22;;;18.10;99.90;18.20;99954.00;;;;4935993;28;109325;-62
2022/06/25 03:05:51;;;;;;;5.50;5.00;;;18.10;99.90;18.20;99962.00;;;;4937715;28;107208;-62
2022/06/25 03:08:17;;;;;;;6.55;5.10;;;18.10;99.90;18.30;99961.00;;;;4935623;28;119630;-63
2022/06/25 03:10:43;;;;;;;6.43;4.70;;;18.10;99.90;18.30;99955.00;;;;4935294;28;119241;-63
2022/06/25 03:13:10;;;;;;;5.15;4.65;;;18.10;99.90;18.30;99959.00;;;;4937706;28;87711;-63
2022/06/25 03:15:36;;;;;;;4.93;4.43;;;18.10;99.90;18.30;99967.00;;;;4937443;28;87651;-63
2022/06/25 03:18:23;;;;;;;7.43;5.72;;;18.20;99.90;18.30;99966.00;;;;4950573;28;107026;-63
2022/06/25 03:20:50;;;;;;;5.47;4.88;;;18.20;99.90;18.40;99977.00;;;;4935562;28;117540;-63
2022/06/25 03:23:16;;;;;;;5.22;4.72;;;18.20;99.90;18.40;99986.00;;;;4935066;28;87658;-63
2022/06/25 03:25:42;;;;;;;5.78;4.93;;;18.20;99.90;18.40;99995.00;;;;4937190;28;89485;-63
2022/06/25 03:28:09;;;;;;;8.63;5.82;;;18.20;99.90;18.40;100003.00;;;;4937997;28;89427;-63
2022/06/25 03:30:35;;;;;;;5.40;4.90;;;18.30;99.90;18.40;100010.00;;;;4936766;28;117335;-63
2022/06/25 03:33:01;;;;;;;8.05;6.03;;;18.20;99.90;18.40;100006.00;;;;4935996;28;100448;-63
2022/06/25 03:35:26;;;;;;;5.15;4.65;;;18.20;99.90;18.30;100010.00;;;;4936609;28;87581;-63
2022/06/25 03:38:07;;;;;;;6.85;4.88;;;18.20;99.90;18.30;100019.00;;;;4935123;28;117072;-63
2022/06/25 03:40:33;;;;;;;9.77;6.60;;;18.20;99.90;18.30;100023.00;;;;4936368;28;109415;-63
2022/06/25 03:42:59;;;;;;;8.25;5.57;;;18.20;99.90;18.30;100023.00;;;;4936042;28;109981;-63
2022/06/25 03:45:26;;;;;;;4.18;3.78;;;18.20;99.90;18.30;100025.00;;;;4936186;28;87643;-63
2022/06/25 03:47:52;;;;;;;5.50;5.00;;;18.20;99.90;18.40;100040.00;;;;4934240;28;90607;-63
2022/06/25 03:50:20;;;;;;;6.97;5.90;;;18.20;99.90;18.40;100038.00;;;;4937885;28;88933;-63
2022/06/25 03:52:47;;;;;;;6.53;5.13;;;18.20;99.90;18.40;100035.00;;;;4936407;28;87924;-63
2022/06/25 03:55:14;;;;;;;6.55;5.63;;;18.20;99.90;18.40;100044.00;;;;4938128;28;87969;-63
2022/06/25 03:57:40;;;;;;;6.68;4.82;;;18.30;99.90;18.50;100049.00;;;;4935774;28;89756;-63
2022/06/25 04:00:07;;;;;;;10.82;5.90;;;18.30;99.90;18.50;100045.00;;;;4935889;28;107071;-64
2022/06/25 04:02:33;;;;;;;7.97;5.43;;;18.30;99.90;18.50;100054.00;;;;4937596;28;87688;-63
2022/06/25 04:04:59;;;;;;;7.32;5.65;;;18.30;99.90;18.50;100056.00;;;;4936906;28;88496;-63
2022/06/25 04:07:25;;;;;;;6.07;5.00;;;18.30;99.90;18.50;100060.00;;;;4937696;28;88845;-63
2022/06/25 04:09:51;;;;;;;6.57;5.22;;;18.30;99.90;18.50;100058.00;;;;4936064;28;116135;-63
2022/06/25 04:12:17;;;;;;;8.20;5.05;;;18.30;99.90;18.60;100063.00;;;;4937502;28;100654;-63
2022/06/25 04:14:42;;;;;;;5.20;4.70;;;18.40;99.90;18.60;100060.00;;;;4936648;28;86994;-63
2022/06/25 04:17:08;;;;;;;7.40;5.50;;;18.40;99.90;18.60;100060.00;;;;4937175;28;117069;-63
2022/06/25 04:19:39;;;;;;;7.22;4.13;;;18.40;99.90;18.60;100066.00;;;;4934265;28;87875;-63
2022/06/25 04:22:08;;;;;;;8.32;7.10;;;18.40;99.90;18.60;100074.00;;;;4934373;28;88508;-64
2022/06/25 04:24:35;;;;;;;7.68;5.80;;;18.50;99.90;18.60;100065.00;;;;4934984;28;94516;-64
2022/06/25 04:27:01;;;;;;;7.57;5.43;;;18.40;99.90;18.60;100061.00;;;;4920910;28;89487;-63
2022/06/25 04:29:27;;;;;;;7.28;6.57;;;18.60;99.90;18.60;100065.00;;;;4938626;28;87842;-63
2022/06/25 04:31:53;;;;;;;7.50;6.28;;;18.40;99.90;18.60;100065.00;;;;4935818;28;96363;-65
2022/06/25 04:34:19;;;;;;;5.57;5.07;;;18.40;99.90;18.60;100067.00;;;;4938916;28;107505;-63
2022/06/25 04:36:44;;;;;;;6.97;6.28;;;18.40;99.90;18.60;100067.00;;;;4939195;28;117141;-64
2022/06/25 04:39:10;;;;;;;7.07;6.38;;;18.40;99.90;18.60;100079.00;;;;4936809;28;87480;-63
2022/06/25 04:41:36;;;;;;;8.23;6.40;;;18.40;99.90;18.50;100081.00;;;;4933644;28;111384;-63
2022/06/25 04:44:02;;;;;;;7.70;5.88;;;18.40;99.90;18.60;100074.00;;;;4935322;28;87781;-63
2022/06/25 04:46:31;;;;;;;8.40;6.35;;;18.40;99.90;18.60;100083.00;;;;4934515;28;89569;-65
2022/06/25 04:48:58;;;;;;;5.90;5.30;;;18.40;99.90;18.60;100073.00;;;;4934520;28;88548;-63
2022/06/25 04:51:28;;;;;;;7.40;6.68;;;18.40;99.90;18.60;100081.00;;;;4935362;28;87490;-63
2022/06/25 04:53:56;;;;;;;8.18;5.40;;;18.40;99.90;18.60;100078.00;;;;4933698;28;89255;-64
2022/06/25 04:56:27;;;;;;;6.45;5.85;;;18.40;99.90;18.60;100081.00;;;;4935280;28;88591;-64
2022/06/25 04:58:54;;;;;;;8.70;5.63;;;18.40;99.90;18.60;100086.00;;;;4933300;28;87841;-64
2022/06/25 05:01:20;;;;;;;9.40;6.50;;;18.40;99.90;18.70;100085.00;;;;4935577;28;87715;-64
2022/06/25 05:03:46;;;;;;;9.93;7.03;;;18.50;99.90;18.70;100084.00;;;;4934112;28;103157;-64
2022/06/25 05:06:13;;;;;;;7.63;5.55;;;18.50;99.90;18.70;100078.00;;;;4934378;28;117552;-64
2022/06/25 05:08:39;;;;;;;7.57;6.78;;;18.50;99.90;18.80;100085.00;;;;4917021;28;102520;-64
2022/06/25 05:11:05;;;;;;;7.93;7.20;;;18.60;99.90;18.80;100075.00;;;;4935368;28;89138;-64
2022/06/25 05:13:30;;;;;;;8.40;7.18;;;18.60;99.90;18.90;100079.00;;;;4934593;28;105377;-63
2022/06/25 05:15:56;;;;;;;9.15;6.18;;;18.70;99.90;18.90;100091.00;;;;4917025;28;116515;-63
2022/06/25 05:18:22;;;;;;;6.93;6.32;;;18.70;99.90;19.00;100085.00;;;;4929105;28;117190;-63
2022/06/25 05:20:47;;;;;;;9.40;7.20;;;18.70;99.90;19.00;100091.00;;;;4918393;28;110653;-63
2022/06/25 05:23:14;;;;;;;10.70;5.72;;;18.80;99.90;19.10;100094.00;;;;4934401;28;108038;-63
2022/06/25 05:25:40;;;;;;;7.18;6.03;;;18.90;99.90;19.10;100097.00;;;;4933689;28;88973;-63
2022/06/25 05:28:07;;;;;;;7.97;6.50;;;18.90;99.90;19.20;100094.00;;;;4935333;28;87682;-65
2022/06/25 05:30:33;;;;;;;10.82;7.80;;;19.00;99.90;19.20;100093.00;;;;4933500;28;95322;-63
2022/06/25 05:32:59;;;;;;;11.52;8.05;;;19.00;99.90;19.30;100101.00;;;;4933576;28;87637;-64
2022/06/25 05:35:26;;;;;;;9.52;6.38;;;19.10;99.90;19.30;100102.00;;;;4933844;28;88928;-63
2022/06/25 05:37:51;;;;;;;7.95;6.88;;;19.10;99.90;19.30;100100.00;;;;4932596;28;102897;-63
2022/06/25 05:40:18;;;;;;;9.82;7.13;;;19.20;99.90;19.40;100099.00;;;;4918759;28;110446;-63
2022/06/25 05:42:44;;;;;;;8.45;5.72;;;19.20;99.90;19.40;100110.00;;;;4920752;28;88078;-61
2022/06/25 05:45:09;;;;;;;9.00;7.35;;;19.20;99.90;19.50;100115.00;;;;4932357;28;88182;-62
2022/06/25 05:47:36;;;;;;;9.88;6.97;;;19.30;99.90;19.50;100115.00;;;;4933976;28;89611;-62
2022/06/25 05:50:06;;;;;;;10.85;7.25;;;19.30;99.90;19.50;100116.00;;;;4934513;28;87701;-63
2022/06/25 05:52:32;;;;;;;7.53;5.50;;;19.30;99.90;19.60;100113.00;;;;4934563;28;87361;-62
2022/06/25 05:54:58;;;;;;;9.07;6.28;;;19.40;99.90;19.60;100118.00;;;;4932223;28;87967;-63
2022/06/25 05:57:26;;;;;;;6.82;5.78;;;19.40;99.90;19.70;100130.00;;;;4932030;28;87749;-62
2022/06/25 05:59:52;;;;;;;10.10;6.72;;;19.50;99.90;19.70;100119.00;;;;4918372;28;88734;-63
2022/06/25 06:02:18;;;;;;;7.97;6.28;;;19.50;99.90;19.80;100129.00;;;;4911939;28;98248;-63
2022/06/25 06:04:44;;;;;;;8.63;6.88;;;19.50;99.90;19.80;100131.00;;;;4929083;28;92076;-63
2022/06/25 06:07:09;;;;;;;6.35;5.75;;;19.60;99.90;19.80;100130.00;;;;4930192;28;93831;-63
2022/06/25 06:09:37;;;;;;;9.25;5.85;;;19.60;99.90;19.90;100135.00;;;;4929316;28;110092;-63
2022/06/25 06:12:03;;;;;;;7.22;6.18;;;19.70;99.90;19.90;100138.00;;;;4932088;28;87811;-63
2022/06/25 06:14:28;;;;;;;12.00;6.47;;;19.70;99.90;19.90;100127.00;;;;4933115;28;87667;-63
2022/06/25 06:16:56;;;;;;;7.80;5.80;;;19.70;99.90;20.00;100132.00;;;;4932782;28;116822;-62
2022/06/25 06:19:22;;;;;;;12.25;7.90;;;19.80;99.90;20.10;100129.00;;;;4926123;28;88085;-62
2022/06/25 06:21:48;;;;;;;12.57;6.60;;;19.90;99.90;20.30;100128.00;;;;4932891;28;99358;-62
2022/06/25 06:24:14;;;;;;;11.43;7.47;;;20.00;99.90;20.40;100128.00;;;;4929851;28;118686;-63
2022/06/25 06:26:39;;;;;;;7.70;6.28;;;20.20;99.90;20.70;100135.00;;;;4914179;28;118744;-63
2022/06/25 06:29:05;;;;;;;8.80;6.68;;;20.30;99.90;20.90;100133.00;;;;4932274;28;110966;-63
2022/06/25 06:31:31;;;;;;;9.35;6.30;;;20.60;99.90;21.10;100139.00;;;;4932036;28;88184;-63
2022/06/25 06:33:57;;;;;;;9.60;6.38;;;20.80;99.90;21.30;100141.00;;;;4920030;28;117391;-64
2022/06/25 06:36:23;;;;;;;6.40;5.40;;;21.00;99.90;21.50;100148.00;;;;4931478;28;88563;-64
2022/06/25 06:38:48;;;;;;;7.70;5.65;;;21.20;99.90;21.70;100148.00;;;;4932278;28;108210;-66
2022/06/25 06:41:14;;;;;;;9.15;6.50;;;21.40;99.90;21.90;100157.00;;;;4933055;28;109144;-63
2022/06/25 06:43:40;;;;;;;8.93;6.82;;;21.50;99.90;22.00;100149.00;;;;4924786;28;89312;-63
2022/06/25 06:46:06;;;;;;;9.23;6.53;;;21.70;99.90;22.10;100149.00;;;;4928708;28;87548;-62
2022/06/25 06:48:32;;;;;;;11.20;6.20;;;21.90;99.90;22.20;100149.00;;;;4930912;28;110642;-62
2022/06/25 06:50:58;;;;;;;11.55;6.35;;;22.00;99.90;22.30;100151.00;;;;4931423;28;108395;-63
2022/06/25 06:53:24;;;;;;;7.32;6.13;;;22.00;99.90;22.30;100157.00;;;;4929509;28;87705;-61
2022/06/25 06:55:50;;;;;;;8.45;6.28;;;22.10;99.90;22.40;100152.00;;;;4927308;28;104335;-59
2022/06/25 06:58:17;;;;;;;5.85;5.25;;;22.20;99.90;22.50;100155.00;;;;4035644;28;10001017;-62
2022/06/25 07:00:51;;;;;;;10.07;6.70;;;22.30;99.90;22.60;100156.00;;;;4879154;28;88211;-61
2022/06/25 07:03:17;;;;;;;9.63;7.13;;;22.40;99.90;22.70;100159.00;;;;4879881;28;109753;-61
2022/06/25 07:05:46;;;;;;;8.25;6.90;;;22.50;99.90;22.90;100173.00;;;;4876827;28;108059;-60
2022/06/25 07:08:11;;;;;;;8.02;6.18;;;22.60;99.90;23.10;100160.00;;;;4875530;28;115565;-61
2022/06/25 07:10:37;;;;;;;7.40;5.38;;;22.70;99.90;23.30;100161.00;;;;4874767;28;92059;-61
2022/06/25 07:13:03;;;;;;;9.43;6.55;;;22.90;99.90;23.50;100162.00;;;;4884227;28;110474;-59
2022/06/25 07:15:28;;;;;;;14.15;6.65;;;23.10;99.90;23.70;100162.00;;;;4873987;28;107935;-58
2022/06/25 07:17:54;;;;;;;6.45;5.45;;;23.40;99.90;23.90;100160.00;;;;4878459;28;87811;-60
2022/06/25 07:20:20;;;;;;;12.73;5.93;;;23.60;99.90;24.10;100161.00;;;;4880498;28;90559;-60
2022/06/25 07:22:45;;;;;;;11.70;5.88;;;23.70;99.90;24.30;100162.00;;;;4858728;28;110060;-61
2022/06/25 07:25:12;;;;;;;6.55;5.82;;;23.90;99.90;24.50;100163.00;;;;4875037;28;109161;-62
2022/06/25 07:27:38;;;;;;;11.57;8.07;;;24.10;99.90;24.50;100161.00;;;;4876492;28;89287;-62
2022/06/25 07:30:04;;;;;;;6.53;5.93;;;24.20;99.90;24.50;100160.00;;;;4877269;28;87422;-61
2022/06/25 07:32:29;;;;;;;8.27;5.97;;;24.30;99.90;24.60;100165.00;;;;4876209;28;96195;-61
2022/06/25 07:34:55;;;;;;;8.40;5.80;;;24.30;99.90;24.60;100165.00;;;;4880611;28;87880;-61
2022/06/25 07:37:21;;;;;;;7.68;5.18;;;24.30;99.90;24.70;100171.00;;;;4877958;28;120502;-60
2022/06/25 07:39:46;;;;;;;10.30;6.43;;;24.40;99.90;24.80;100158.00;;;;4879386;28;117051;-62
2022/06/25 07:42:12;;;;;;;8.55;6.40;;;24.50;99.90;24.70;100166.00;;;;4879289;28;109419;-62
2022/06/25 07:44:38;;;;;;;6.97;5.57;;;24.40;99.90;24.60;100169.00;;;;4878083;28;87882;-62
2022/06/25 07:47:04;;;;;;;6.00;5.20;;;24.30;99.90;24.60;100166.00;;;;4892316;28;88903;-61
2022/06/25 07:49:29;;;;;;;5.72;4.60;;;24.30;99.90;24.50;100165.00;;;;4879477;28;88633;-61
2022/06/25 07:51:59;;;;;;;5.75;5.13;;;24.30;99.90;24.50;100166.00;;;;4876211;28;111556;-61
2022/06/25 07:54:29;;;;;;;8.10;5.13;;;24.20;99.90;24.50;100163.00;;;;4879623;28;87285;-60
2022/06/25 07:56:56;;;;;;;5.65;3.83;;;24.20;99.90;24.60;100162.00;;;;4862272;28;87818;-62
2022/06/25 07:59:22;;;;;;;8.57;5.47;;;24.30;99.90;24.70;100175.00;;;;4878167;28;107083;-62
2022/06/25 08:01:48;;;;;;;7.95;5.28;;;24.40;99.90;24.80;100173.00;;;;4875544;28;88859;-62
2022/06/25 08:04:14;;;;;;;8.10;5.28;;;24.40;99.90;24.90;100181.00;;;;4877618;28;108559;-62
2022/06/25 08:06:41;;;;;;;6.50;5.28;;;24.60;99.90;25.00;100180.00;;;;4876387;28;87951;-61
2022/06/25 08:09:08;;;;;;;8.68;6.70;;;24.70;99.90;25.20;100184.00;;;;4883227;28;88265;-62
2022/06/25 08:11:34;;;;;;;6.25;5.63;;;24.80;99.90;25.30;100178.00;;;;4879280;28;87815;-62
2022/06/25 08:14:00;;;;;;;6.38;5.70;;;25.00;99.90;25.50;100182.00;;;;4877839;28;95738;-62
2022/06/25 08:16:26;;;;;;;8.35;6.28;;;25.20;99.90;25.70;100187.00;;;;4874752;28;119438;-62
2022/06/25 08:18:53;;;;;;;10.93;7.60;;;25.30;99.90;25.80;100186.00;;;;4883043;28;88762;-62
2022/06/25 08:21:19;;;;;;;9.98;6.45;;;25.50;99.90;25.90;100196.00;;;;4874869;28;99696;-61
2022/06/25 08:23:45;;;;;;;6.53;5.72;;;25.60;99.90;25.90;100193.00;;;;4879672;28;87841;-61
2022/06/25 08:26:11;;;;;;;9.63;5.95;;;25.60;99.90;25.90;100195.00;;;;4875036;28;89492;-61
2022/06/25 08:28:37;;;;;;;7.55;6.28;;;25.60;99.90;25.90;100208.00;;;;4880281;28;90185;-61
2022/06/25 08:31:06;;;;;;;6.43;5.78;;;25.60;99.90;25.80;100200.00;;;;4875016;28;110218;-61
2022/06/25 08:33:31;;;;;;;10.20;5.18;;;25.60;99.90;25.80;100202.00;;;;4880124;28;109290;-60
2022/06/25 08:35:57;;;;;;;7.63;5.13;;;25.60;99.90;25.80;100209.00;;;;4874822;28;118423;-62
2022/06/25 08:38:23;;;;;;;5.57;4.82;;;25.50;99.90;25.90;100219.00;;;;4877878;28;118258;-61
2022/06/25 08:40:55;;;;;;;5.30;4.25;;;25.60;99.90;26.00;100209.00;;;;4875241;28;87814;-61
2022/06/25 08:43:21;;;;;;;6.57;5.03;;;25.70;99.90;26.10;100220.00;;;;4875493;28;87218;-61
2022/06/25 08:45:47;;;;;;;5.25;4.65;;;25.80;99.90;26.20;100218.00;;;;4869946;28;88574;-61
2022/06/25 08:48:21;;;;;;;5.00;4.50;;;25.80;99.90;26.30;100225.00;;;;4873622;28;93630;-60
2022/06/25 08:50:49;;;;;;;4.75;4.25;;;25.90;99.90;26.50;100219.00;;;;4875761;28;101086;-61
2022/06/25 08:53:16;;;;;;;5.45;4.35;;;26.10;99.90;26.60;100221.00;;;;4874661;28;88058;-61
2022/06/25 08:55:44;;;;;;;6.15;5.30;;;26.20;99.90;26.60;100221.00;;;;4875048;28;87828;-61
2022/06/25 08:58:11;;;;;;;5.10;4.55;;;26.30;99.90;26.70;100222.00;;;;4877814;28;88312;-61
2022/06/25 09:00:41;;;;;;;5.10;4.40;;;26.40;99.90;26.90;100234.00;;;;4879376;28;88003;-61
2022/06/25 09:03:08;;;;;;;7.97;4.40;;;26.50;99.90;26.90;100234.00;;;;4873962;28;88161;-61
2022/06/25 09:05:38;;;;;;;10.10;5.22;;;26.60;99.90;27.00;100235.00;;;;4873911;28;88898;-61
2022/06/25 09:08:10;;;;;;;5.20;4.57;;;26.60;99.90;27.10;100237.00;;;;4875480;28;88617;-62
2022/06/25 09:10:38;;;;;;;6.45;4.32;;;26.70;99.90;27.20;100238.00;;;;4874658;28;87829;-60
2022/06/25 09:13:09;;;;;;;5.13;4.07;;;26.80;99.90;27.30;100229.00;;;;4874699;28;87698;-61
2022/06/25 09:15:45;;;;;;;6.28;4.03;;;26.90;99.90;27.20;100236.00;;;;4873761;28;88782;-61
2022/06/25 09:18:16;;;;;;;7.38;3.85;;;26.90;99.50;27.20;100235.00;;;;4880322;28;90100;-61
2022/06/25 09:20:58;;;;;;;4.68;4.25;;;26.90;99.20;27.20;100229.00;;;;4875693;28;102355;-61
2022/06/25 09:23:26;;;;;;;5.15;3.67;;;26.90;98.60;27.30;100232.00;;;;4875244;28;88329;-61
2022/06/25 09:26:11;;;;;;;4.35;3.53;;;27.00;98.70;27.50;100239.00;;;;4874156;28;87885;-61
2022/06/25 09:28:40;;;;;;;4.82;3.40;;;27.10;98.60;27.60;100239.00;;;;4874540;28;88670;-63
2022/06/25 09:31:07;;;;;;;4.38;3.90;;;27.20;98.00;27.80;100236.00;;;;4875335;28;87649;-61
2022/06/25 09:33:35;;;;;;;4.20;3.35;;;27.40;97.50;27.90;100235.00;;;;4874565;28;87215;-60
2022/06/25 09:36:01;;;;;;;4.35;3.35;;;27.50;97.20;28.10;100231.00;;;;4874306;28;88630;-61
2022/06/25 09:38:27;;;;;;;5.68;4.25;;;27.70;96.80;28.30;100240.00;;;;4877115;28;110994;-62
2022/06/25 09:40:59;;;;;;;4.53;3.15;;;27.80;96.00;28.40;100243.00;;;;4871122;28;88740;-62
2022/06/25 09:43:34;;;;;;;5.40;4.07;;;27.90;95.30;28.40;100243.00;;;;4874385;28;87867;-61
2022/06/25 09:46:06;;;;;;;2.78;2.20;;;28.00;94.80;28.30;100239.00;;;;4875020;28;95906;-61
2022/06/25 09:48:35;;;;;;;2.92;2.45;;;27.90;94.50;28.40;100246.00;;;;4877506;28;87708;-60
2022/06/25 09:51:06;;;;;;;3.38;2.60;;;28.00;94.30;28.50;100240.00;;;;4876836;28;87785;-61
2022/06/25 09:53:34;;;;;;;4.47;3.45;;;28.10;93.80;28.50;100247.00;;;;4881247;28;87788;-62
2022/06/25 09:56:02;;;;;;;4.55;2.90;;;28.10;93.20;28.50;100240.00;;;;4877416;28;87892;-61
2022/06/25 09:58:31;;;;;;;3.03;2.72;;;28.20;92.90;28.60;100237.00;;;;4879341;28;88222;-61
2022/06/25 10:00:57;;;;;;;5.72;3.17;;;28.20;92.70;28.70;100242.00;;;;4876760;28;87581;-61
2022/06/25 10:03:25;;;;;;;3.75;3.10;;;28.30;92.10;28.70;100235.00;;;;4857495;28;108485;-61
2022/06/25 10:05:53;;;;;;;4.07;2.83;;;28.30;91.20;28.60;100235.00;;;;4873999;28;88723;-61
2022/06/25 10:08:21;;;;;;;2.90;2.20;;;28.30;90.70;28.60;100240.00;;;;4874859;28;88412;-61
2022/06/25 10:10:51;;;;;;;2.90;2.65;;;28.20;90.70;28.60;100235.00;;;;4876153;28;109329;-62
2022/06/25 10:13:17;;;;;;;7.72;2.65;;;28.30;90.70;28.70;100232.00;;;;4876879;28;87794;-61
2022/06/25 10:15:45;;;;;;;4.43;2.60;;;28.30;90.40;28.80;100233.00;;;;4858005;28;87865;-60
2022/06/25 10:18:11;;;;;;;3.22;2.90;;;28.40;89.50;28.90;100244.00;;;;4876040;28;87950;-61
2022/06/25 10:20:42;;;;;;;4.25;3.13;;;28.50;89.10;28.90;100236.00;;;;4874065;28;87785;-61
2022/06/25 10:23:10;;;;;;;4.03;2.53;;;28.50;88.20;28.90;100234.00;;;;4871884;28;102142;-61
2022/06/25 10:25:37;;;;;;;2.55;2.35;;;28.60;87.60;28.90;100238.00;;;;4876887;28;88075;-61
2022/06/25 10:28:16;;;;;;;4.03;2.83;;;28.50;87.40;28.80;100229.00;;;;4876542;28;88972;-60
2022/06/25 10:30:56;;;;;;;4.35;3.00;;;28.50;85.50;28.60;100227.00;;;;4873869;28;88639;-61
2022/06/25 10:33:26;;;;;;;3.13;2.47;;;28.30;85.80;28.50;100226.00;;;;4864720;28;88411;-61
2022/06/25 10:35:55;;;;;;;2.80;2.17;;;28.20;86.80;28.60;100221.00;;;;4879024;28;88517;-61
2022/06/25 10:38:24;;;;;;;2.80;2.53;;;28.20;87.00;28.60;100213.00;;;;4878836;28;88168;-61
2022/06/25 10:43:59;;;;;;;4.95;2.22;;;28.30;86.50;28.60;100224.00;;;;4880932;28;87772;-61
2022/06/25 10:46:33;;;;;;;3.83;2.42;;;28.30;86.00;28.60;100221.00;;;;4877131;28;118717;-61
2022/06/25 10:49:22;;;;;;;3.40;2.35;;;28.30;85.40;28.60;100220.00;;;;4875620;28;88576;-62
2022/06/25 10:51:50;;;;;;;3.20;2.38;;;28.30;85.80;28.70;100223.00;;;;4876756;28;87949;-62